createdAt,value
2023-06-17T00:00:13.130Z,14.53
2023-06-17T00:01:12.929Z,14.49
2023-06-17T00:02:12.819Z,14.49
2023-06-17T00:03:12.874Z,14.44
2023-06-17T00:04:12.994Z,14.43
2023-06-17T00:05:12.869Z,14.39
2023-06-17T00:06:12.871Z,14.38
2023-06-17T00:07:12.963Z,14.34
2023-06-17T00:08:12.903Z,14.32
2023-06-17T00:09:12.911Z,14.31
2023-06-17T00:10:12.839Z,14.28
2023-06-17T00:11:12.724Z,14.25
2023-06-17T00:12:12.847Z,14.25
2023-06-17T00:13:12.848Z,14.21
2023-06-17T00:14:12.725Z,14.19
2023-06-17T00:15:12.651Z,14.17
2023-06-17T00:16:12.901Z,14.16
2023-06-17T00:17:12.788Z,14.13
2023-06-17T00:18:12.830Z,14.10
2023-06-17T00:19:12.628Z,14.07
2023-06-17T00:20:12.633Z,14.06
2023-06-17T00:21:12.664Z,14.01
2023-06-17T00:22:12.719Z,13.95
2023-06-17T00:23:12.701Z,13.92
2023-06-17T00:24:12.674Z,13.88
2023-06-17T00:25:12.632Z,13.87
2023-06-17T00:26:12.716Z,13.83
2023-06-17T00:27:12.658Z,13.81
2023-06-17T00:28:12.720Z,13.79
2023-06-17T00:29:12.671Z,13.76
2023-06-17T00:30:12.532Z,13.76
2023-06-17T00:31:12.497Z,13.74
2023-06-17T00:32:12.598Z,13.73
2023-06-17T00:33:12.573Z,13.71
2023-06-17T00:34:12.628Z,13.71
2023-06-17T00:35:12.521Z,13.71
2023-06-17T00:36:12.445Z,13.71
2023-06-17T00:37:12.465Z,13.70
2023-06-17T00:38:12.647Z,13.69
2023-06-17T00:39:12.421Z,13.69
2023-06-17T00:40:12.442Z,13.69
2023-06-17T00:41:12.410Z,13.69
2023-06-17T00:42:12.576Z,13.67
2023-06-17T00:43:12.385Z,13.65
2023-06-17T00:44:12.489Z,13.62
2023-06-17T00:45:12.375Z,13.59
2023-06-17T00:46:12.484Z,13.58
2023-06-17T00:47:12.350Z,13.55
2023-06-17T00:48:12.379Z,13.54
2023-06-17T00:49:12.344Z,13.52
2023-06-17T00:50:12.548Z,13.51
2023-06-17T00:51:12.505Z,13.44
2023-06-17T00:52:23.781Z,13.43
2023-06-17T00:53:12.512Z,13.38
2023-06-17T00:54:12.386Z,13.38
2023-06-17T00:55:12.498Z,13.33
2023-06-17T00:56:12.464Z,13.30
2023-06-17T00:57:12.260Z,13.29
2023-06-17T00:58:12.350Z,13.27
2023-06-17T00:59:12.370Z,13.25
2023-06-17T01:00:12.932Z,13.24
2023-06-17T01:01:12.386Z,13.24
2023-06-17T01:02:12.424Z,13.22
2023-06-17T01:03:12.263Z,13.21
2023-06-17T01:04:12.375Z,13.21
2023-06-17T01:05:12.860Z,13.20
2023-06-17T01:06:12.152Z,13.21
2023-06-17T01:07:12.272Z,13.20
2023-06-17T01:08:12.325Z,13.18
2023-06-17T01:09:12.147Z,13.18
2023-06-17T01:10:12.173Z,13.17
2023-06-17T01:11:12.148Z,13.14
2023-06-17T01:12:12.145Z,13.14
2023-06-17T01:13:12.113Z,13.12
2023-06-17T01:14:12.132Z,13.12
2023-06-17T01:15:12.163Z,13.11
2023-06-17T01:16:12.181Z,13.09
2023-06-17T01:17:12.215Z,13.09
2023-06-17T01:18:12.155Z,13.06
2023-06-17T01:19:12.155Z,13.04
2023-06-17T01:20:12.177Z,13.04
2023-06-17T01:21:12.228Z,13.02
2023-06-17T01:22:12.530Z,13.02
2023-06-17T01:23:12.171Z,13.00
2023-06-17T01:24:12.159Z,12.97
2023-06-17T01:25:11.985Z,12.97
2023-06-17T01:26:12.287Z,12.96
2023-06-17T01:27:11.930Z,12.95
2023-06-17T01:28:12.225Z,12.95
2023-06-17T01:29:11.937Z,12.92
2023-06-17T01:30:12.095Z,12.93
2023-06-17T01:31:12.092Z,12.93
2023-06-17T01:32:11.954Z,12.92
2023-06-17T01:33:11.872Z,12.89
2023-06-17T01:34:12.206Z,12.88
2023-06-17T01:35:11.896Z,12.87
2023-06-17T01:36:12.269Z,12.87
2023-06-17T01:37:11.875Z,12.85
2023-06-17T01:38:12.022Z,12.85
2023-06-17T01:39:11.880Z,12.82
2023-06-17T01:40:12.036Z,12.81
2023-06-17T01:41:11.867Z,12.78
2023-06-17T01:42:12.157Z,12.78
2023-06-17T01:43:11.945Z,12.75
2023-06-17T01:44:11.844Z,12.75
2023-06-17T01:45:12.039Z,12.74
2023-06-17T01:46:11.984Z,12.71
2023-06-17T01:47:11.772Z,12.70
2023-06-17T01:48:11.899Z,12.70
2023-06-17T01:49:11.743Z,12.70
2023-06-17T01:50:11.776Z,12.69
2023-06-17T01:51:11.790Z,12.69
2023-06-17T01:52:11.760Z,12.66
2023-06-17T01:53:11.767Z,12.64
2023-06-17T01:54:11.722Z,12.63
2023-06-17T01:55:11.695Z,12.60
2023-06-17T01:56:11.831Z,12.57
2023-06-17T01:57:11.663Z,12.56
2023-06-17T01:58:11.888Z,12.54
2023-06-17T01:59:11.664Z,12.52
2023-06-17T02:00:12.605Z,12.51
2023-06-17T02:01:11.606Z,12.51
2023-06-17T02:02:11.752Z,12.51
2023-06-17T02:03:11.841Z,12.51
2023-06-17T02:04:11.849Z,12.51
2023-06-17T02:05:12.096Z,12.51
2023-06-17T02:06:11.741Z,12.51
2023-06-17T02:07:11.555Z,12.51
2023-06-17T02:08:11.867Z,12.51
2023-06-17T02:09:11.695Z,12.51
2023-06-17T02:10:11.907Z,12.49
2023-06-17T02:11:11.717Z,12.52
2023-06-17T02:12:11.649Z,12.51
2023-06-17T02:13:11.514Z,12.51
2023-06-17T02:14:11.463Z,12.51
2023-06-17T02:15:11.676Z,12.51
2023-06-17T02:16:11.769Z,12.51
2023-06-17T02:17:11.467Z,12.52
2023-06-17T02:18:11.485Z,12.49
2023-06-17T02:19:11.432Z,12.49
2023-06-17T02:20:11.427Z,12.48
2023-06-17T02:21:11.434Z,12.46
2023-06-17T02:22:11.475Z,12.46
2023-06-17T02:23:11.398Z,12.46
2023-06-17T02:24:11.464Z,12.44
2023-06-17T02:25:11.561Z,12.44
2023-06-17T02:26:11.542Z,12.42
2023-06-17T02:27:11.341Z,12.41
2023-06-17T02:28:11.583Z,12.42
2023-06-17T02:29:11.357Z,12.41
2023-06-17T02:30:11.358Z,12.39
2023-06-17T02:31:11.379Z,12.37
2023-06-17T02:32:11.331Z,12.38
2023-06-17T02:33:11.477Z,12.34
2023-06-17T02:34:11.498Z,12.31
2023-06-17T02:35:11.279Z,12.34
2023-06-17T02:36:11.475Z,12.31
2023-06-17T02:37:11.348Z,12.30
2023-06-17T02:38:11.273Z,12.29
2023-06-17T02:39:11.289Z,12.26
2023-06-17T02:40:11.246Z,12.27
2023-06-17T02:41:11.260Z,12.27
2023-06-17T02:42:11.347Z,12.26
2023-06-17T02:43:11.209Z,12.24
2023-06-17T02:44:11.301Z,12.24
2023-06-17T02:45:11.396Z,12.24
2023-06-17T02:46:11.188Z,12.23
2023-06-17T02:47:11.431Z,12.23
2023-06-17T02:48:11.395Z,12.23
2023-06-17T02:49:11.288Z,12.20
2023-06-17T02:50:11.310Z,12.19
2023-06-17T02:51:11.141Z,12.19
2023-06-17T02:52:11.571Z,12.19
2023-06-17T02:53:11.283Z,12.16
2023-06-17T02:54:11.270Z,12.15
2023-06-17T02:55:11.109Z,12.15
2023-06-17T02:56:11.268Z,12.12
2023-06-17T02:57:11.078Z,12.12
2023-06-17T02:58:11.273Z,12.13
2023-06-17T02:59:11.076Z,12.11
2023-06-17T03:00:11.031Z,12.08
2023-06-17T03:01:11.351Z,12.06
2023-06-17T03:02:11.021Z,12.05
2023-06-17T03:03:11.188Z,12.05
2023-06-17T03:04:11.054Z,12.05
2023-06-17T03:05:11.122Z,12.02
2023-06-17T03:06:11.146Z,12.01
2023-06-17T03:07:11.068Z,11.99
2023-06-17T03:08:10.947Z,11.99
2023-06-17T03:09:11.037Z,11.97
2023-06-17T03:10:10.956Z,11.96
2023-06-17T03:11:10.895Z,11.96
2023-06-17T03:12:11.009Z,11.96
2023-06-17T03:13:10.972Z,11.97
2023-06-17T03:14:10.983Z,11.96
2023-06-17T03:15:10.941Z,11.96
2023-06-17T03:16:10.967Z,11.94
2023-06-17T03:17:10.964Z,11.94
2023-06-17T03:18:11.065Z,11.93
2023-06-17T03:19:10.875Z,11.93
2023-06-17T03:20:10.826Z,11.93
2023-06-17T03:21:10.859Z,11.93
2023-06-17T03:22:10.874Z,11.90
2023-06-17T03:23:11.028Z,11.90
2023-06-17T03:24:10.818Z,11.89
2023-06-17T03:25:10.828Z,11.90
2023-06-17T03:26:10.797Z,11.93
2023-06-17T03:27:10.824Z,11.93
2023-06-17T03:28:11.004Z,11.94
2023-06-17T03:29:10.867Z,11.93
2023-06-17T03:30:10.744Z,11.90
2023-06-17T03:31:10.844Z,11.94
2023-06-17T03:32:10.913Z,11.93
2023-06-17T03:33:11.068Z,11.93
2023-06-17T03:34:10.761Z,11.94
2023-06-17T03:35:10.688Z,11.94
2023-06-17T03:36:10.896Z,11.93
2023-06-17T03:37:10.631Z,11.90
2023-06-17T03:38:10.786Z,11.93
2023-06-17T03:39:10.671Z,11.93
2023-06-17T03:40:10.719Z,11.90
2023-06-17T03:41:10.604Z,11.89
2023-06-17T03:42:10.807Z,11.93
2023-06-17T03:43:10.622Z,11.93
2023-06-17T03:44:10.606Z,11.90
2023-06-17T03:45:10.681Z,11.93
2023-06-17T03:46:10.803Z,11.93
2023-06-17T03:47:10.562Z,11.94
2023-06-17T03:48:10.626Z,11.96
2023-06-17T03:49:11.074Z,11.94
2023-06-17T03:50:10.624Z,11.97
2023-06-17T03:51:10.722Z,11.97
2023-06-17T03:52:10.719Z,12.01
2023-06-17T03:53:10.486Z,12.01
2023-06-17T03:54:10.503Z,12.04
2023-06-17T03:55:10.710Z,12.04
2023-06-17T03:56:10.491Z,12.05
2023-06-17T03:57:10.497Z,12.05
2023-06-17T03:58:10.531Z,12.08
2023-06-17T03:59:10.526Z,12.11
2023-06-17T04:00:10.613Z,12.11
2023-06-17T04:01:10.485Z,12.11
2023-06-17T04:02:10.434Z,12.12
2023-06-17T04:03:10.478Z,12.13
2023-06-17T04:04:10.504Z,12.15
2023-06-17T04:05:10.411Z,12.15
2023-06-17T04:06:10.364Z,12.16
2023-06-17T04:07:10.375Z,12.19
2023-06-17T04:08:10.417Z,12.20
2023-06-17T04:09:10.332Z,12.21
2023-06-17T04:10:10.463Z,12.23
2023-06-17T04:11:10.434Z,12.23
2023-06-17T04:12:10.322Z,12.23
2023-06-17T04:13:10.554Z,12.23
2023-06-17T04:14:10.290Z,12.24
2023-06-17T04:15:10.381Z,12.26
2023-06-17T04:16:10.441Z,12.26
2023-06-17T04:17:10.335Z,12.27
2023-06-17T04:18:10.368Z,12.29
2023-06-17T04:19:10.229Z,12.30
2023-06-17T04:20:10.207Z,12.30
2023-06-17T04:21:10.405Z,12.34
2023-06-17T04:22:10.237Z,12.37
2023-06-17T04:23:10.370Z,12.39
2023-06-17T04:24:10.239Z,12.39
2023-06-17T04:25:10.187Z,12.42
2023-06-17T04:26:10.199Z,12.44
2023-06-17T04:27:10.189Z,12.46
2023-06-17T04:28:10.599Z,12.48
2023-06-17T04:29:10.132Z,12.49
2023-06-17T04:30:10.515Z,12.51
2023-06-17T04:31:10.507Z,12.54
2023-06-17T04:32:10.389Z,12.54
2023-06-17T04:33:10.175Z,12.59
2023-06-17T04:34:10.085Z,12.59
2023-06-17T04:35:10.148Z,12.62
2023-06-17T04:36:10.339Z,12.63
2023-06-17T04:37:10.220Z,12.64
2023-06-17T04:38:10.147Z,12.66
2023-06-17T04:39:11.767Z,12.70
2023-06-17T04:40:10.111Z,12.71
2023-06-17T04:41:10.014Z,12.75
2023-06-17T04:42:10.225Z,12.78
2023-06-17T04:43:10.086Z,12.79
2023-06-17T04:44:10.035Z,12.82
2023-06-17T04:45:09.967Z,12.84
2023-06-17T04:46:10.572Z,12.85
2023-06-17T04:47:10.203Z,12.88
2023-06-17T04:48:10.202Z,12.87
2023-06-17T04:49:09.937Z,12.88
2023-06-17T04:50:09.983Z,12.88
2023-06-17T04:51:09.926Z,12.92
2023-06-17T04:52:10.061Z,12.95
2023-06-17T04:53:10.188Z,12.97
2023-06-17T04:54:09.902Z,12.99
2023-06-17T04:55:10.221Z,13.02
2023-06-17T04:56:09.845Z,13.03
2023-06-17T04:57:10.022Z,13.06
2023-06-17T04:58:10.096Z,13.09
2023-06-17T04:59:09.815Z,13.12
2023-06-17T05:00:10.002Z,13.12
2023-06-17T05:01:10.111Z,13.17
2023-06-17T05:02:09.951Z,13.21
2023-06-17T05:03:10.028Z,13.24
2023-06-17T05:04:09.902Z,13.27
2023-06-17T05:05:09.776Z,13.29
2023-06-17T05:06:09.776Z,13.32
2023-06-17T05:07:09.911Z,13.36
2023-06-17T05:08:09.730Z,13.37
2023-06-17T05:09:09.735Z,13.41
2023-06-17T05:10:09.800Z,13.43
2023-06-17T05:11:09.860Z,13.47
2023-06-17T05:12:09.710Z,13.49
2023-06-17T05:13:09.953Z,13.51
2023-06-17T05:14:09.684Z,13.54
2023-06-17T05:15:09.822Z,13.56
2023-06-17T05:16:09.715Z,13.58
2023-06-17T05:17:09.685Z,13.61
2023-06-17T05:18:09.751Z,13.62
2023-06-17T05:19:09.712Z,13.65
2023-06-17T05:20:09.834Z,13.69
2023-06-17T05:21:09.628Z,13.70
2023-06-17T05:22:09.652Z,13.74
2023-06-17T05:23:09.669Z,13.80
2023-06-17T05:24:09.643Z,13.83
2023-06-17T05:25:09.610Z,13.88
2023-06-17T05:26:09.586Z,13.91
2023-06-17T05:27:09.619Z,13.96
2023-06-17T05:28:09.535Z,13.98
2023-06-17T05:29:09.534Z,13.99
2023-06-17T05:30:09.730Z,13.99
2023-06-17T05:31:09.582Z,14.02
2023-06-17T05:32:09.510Z,14.06
2023-06-17T05:33:09.565Z,14.10
2023-06-17T05:34:09.648Z,14.12
2023-06-17T05:35:09.465Z,14.17
2023-06-17T05:36:09.459Z,14.24
2023-06-17T05:37:09.430Z,14.28
2023-06-17T05:38:09.659Z,14.32
2023-06-17T05:39:09.405Z,14.38
2023-06-17T05:40:09.628Z,14.43
2023-06-17T05:41:09.632Z,14.52
2023-06-17T05:42:09.537Z,14.53
2023-06-17T05:43:09.406Z,14.61
2023-06-17T05:44:09.475Z,14.67
2023-06-17T05:45:09.523Z,14.74
2023-06-17T05:46:09.436Z,14.83
2023-06-17T05:47:09.522Z,14.87
2023-06-17T05:48:09.479Z,14.93
2023-06-17T05:49:09.326Z,15.01
2023-06-17T05:50:09.477Z,15.03
2023-06-17T05:51:09.390Z,15.08
2023-06-17T05:52:09.592Z,15.12
2023-06-17T05:53:09.289Z,15.19
2023-06-17T05:54:09.339Z,15.23
2023-06-17T05:55:09.488Z,15.27
2023-06-17T05:56:09.320Z,15.33
2023-06-17T05:57:09.231Z,15.38
2023-06-17T05:58:09.359Z,15.43
2023-06-17T05:59:09.261Z,15.52
2023-06-17T06:00:09.211Z,15.60
2023-06-17T06:01:09.414Z,15.66
2023-06-17T06:02:09.320Z,15.75
2023-06-17T06:03:09.298Z,15.79
2023-06-17T06:04:09.250Z,15.84
2023-06-17T06:05:09.356Z,15.88
2023-06-17T06:06:09.136Z,15.94
2023-06-17T06:07:09.431Z,16.03
2023-06-17T06:08:09.440Z,16.09
2023-06-17T06:09:09.105Z,16.16
2023-06-17T06:10:09.298Z,16.23
2023-06-17T06:11:09.123Z,16.30
2023-06-17T06:12:09.116Z,16.35
2023-06-17T06:13:09.259Z,16.42
2023-06-17T06:14:09.106Z,16.52
2023-06-17T06:15:09.136Z,16.63
2023-06-17T06:16:09.170Z,16.70
2023-06-17T06:17:09.068Z,16.74
2023-06-17T06:18:09.147Z,16.83
2023-06-17T06:19:09.178Z,16.86
2023-06-17T06:20:09.064Z,16.93
2023-06-17T06:21:09.992Z,16.98
2023-06-17T06:22:09.197Z,17.03
2023-06-17T06:23:09.368Z,17.06
2023-06-17T06:24:09.016Z,17.10
2023-06-17T06:25:08.991Z,17.13
2023-06-17T06:26:09.144Z,17.17
2023-06-17T06:27:08.931Z,17.22
2023-06-17T06:28:08.947Z,17.25
2023-06-17T06:29:08.920Z,17.25
2023-06-17T06:30:08.955Z,17.33
2023-06-17T06:31:09.281Z,17.36
2023-06-17T06:32:08.921Z,17.41
2023-06-17T06:33:09.009Z,17.46
2023-06-17T06:34:09.185Z,17.51
2023-06-17T06:35:08.895Z,17.54
2023-06-17T06:36:08.884Z,17.54
2023-06-17T06:37:08.912Z,17.59
2023-06-17T06:38:09.008Z,17.64
2023-06-17T06:39:08.956Z,17.64
2023-06-17T06:40:08.866Z,17.71
2023-06-17T06:41:08.808Z,17.76
2023-06-17T06:42:08.823Z,17.79
2023-06-17T06:43:09.246Z,17.85
2023-06-17T06:44:08.778Z,17.88
2023-06-17T06:45:09.036Z,17.94
2023-06-17T06:46:08.807Z,17.99
2023-06-17T06:47:08.720Z,18.03
2023-06-17T06:48:08.795Z,18.07
2023-06-17T06:49:08.744Z,18.12
2023-06-17T06:50:08.731Z,18.15
2023-06-17T06:51:08.714Z,18.19
2023-06-17T06:52:08.757Z,18.24
2023-06-17T06:53:08.991Z,18.28
2023-06-17T06:54:08.869Z,18.31
2023-06-17T06:55:09.066Z,18.34
2023-06-17T06:56:08.681Z,18.39
2023-06-17T06:57:08.696Z,18.42
2023-06-17T06:58:08.687Z,18.47
2023-06-17T06:59:08.922Z,18.50
2023-06-17T07:00:08.647Z,18.52
2023-06-17T07:01:08.736Z,18.55
2023-06-17T07:02:08.638Z,18.58
2023-06-17T07:03:09.050Z,18.68
2023-06-17T07:04:08.752Z,18.77
2023-06-17T07:05:08.937Z,18.84
2023-06-17T07:06:08.565Z,18.94
2023-06-17T07:07:08.639Z,18.98
2023-06-17T07:08:08.595Z,19.06
2023-06-17T07:09:08.822Z,19.11
2023-06-17T07:10:08.720Z,19.13
2023-06-17T07:11:08.869Z,19.17
2023-06-17T07:12:08.651Z,19.21
2023-06-17T07:13:08.507Z,19.32
2023-06-17T07:14:08.587Z,19.39
2023-06-17T07:15:08.462Z,19.46
2023-06-17T07:16:08.506Z,19.51
2023-06-17T07:17:08.615Z,19.57
2023-06-17T07:18:08.695Z,19.63
2023-06-17T07:19:08.565Z,19.69
2023-06-17T07:20:08.426Z,19.76
2023-06-17T07:21:08.405Z,19.86
2023-06-17T07:22:08.580Z,19.93
2023-06-17T07:23:08.384Z,19.95
2023-06-17T07:24:08.628Z,20.02
2023-06-17T07:25:08.626Z,20.08
2023-06-17T07:26:08.402Z,20.10
2023-06-17T07:27:08.343Z,20.16
2023-06-17T07:28:08.421Z,20.21
2023-06-17T07:29:08.321Z,20.27
2023-06-17T07:30:08.356Z,20.30
2023-06-17T07:31:08.613Z,20.38
2023-06-17T07:32:08.466Z,20.43
2023-06-17T07:33:08.379Z,20.50
2023-06-17T07:34:08.304Z,20.61
2023-06-17T07:35:08.324Z,20.74
2023-06-17T07:36:08.259Z,20.95
2023-06-17T07:37:08.219Z,21.14
2023-06-17T07:38:08.232Z,21.35
2023-06-17T07:39:08.206Z,21.50
2023-06-17T07:40:08.243Z,21.61
2023-06-17T07:41:08.212Z,21.74
2023-06-17T07:42:08.175Z,21.82
2023-06-17T07:43:08.395Z,21.82
2023-06-17T07:44:08.283Z,21.91
2023-06-17T07:45:08.214Z,21.98
2023-06-17T07:46:08.591Z,22.06
2023-06-17T07:47:08.140Z,22.12
2023-06-17T07:48:08.178Z,22.17
2023-06-17T07:49:08.330Z,22.25
2023-06-17T07:50:08.362Z,22.32
2023-06-17T07:51:08.126Z,22.41
2023-06-17T07:52:08.247Z,22.56
2023-06-17T07:53:08.121Z,22.72
2023-06-17T07:54:08.185Z,22.86
2023-06-17T07:55:08.680Z,23.04
2023-06-17T07:56:08.646Z,23.19
2023-06-17T07:57:08.222Z,23.34
2023-06-17T07:58:08.156Z,23.55
2023-06-17T07:59:08.458Z,23.77
2023-06-17T08:00:08.224Z,24.01
2023-06-17T08:01:08.352Z,24.24
2023-06-17T08:02:09.865Z,24.37
2023-06-17T08:03:08.066Z,24.50
2023-06-17T08:04:08.127Z,24.64
2023-06-17T08:05:08.015Z,24.88
2023-06-17T08:06:08.001Z,25.16
2023-06-17T08:07:07.943Z,25.47
2023-06-17T08:08:07.899Z,25.79
2023-06-17T08:09:07.923Z,26.15
2023-06-17T08:10:09.942Z,26.52
2023-06-17T08:11:07.865Z,26.89
2023-06-17T08:12:07.969Z,27.14
2023-06-17T08:13:07.896Z,27.35
2023-06-17T08:14:07.926Z,27.47
2023-06-17T08:15:07.871Z,27.62
2023-06-17T08:16:07.990Z,27.70
2023-06-17T08:17:07.838Z,27.51
2023-06-17T08:18:07.886Z,27.32
2023-06-17T08:19:07.838Z,27.32
2023-06-17T08:20:07.827Z,27.41
2023-06-17T08:21:07.819Z,27.53
2023-06-17T08:22:07.882Z,27.59
2023-06-17T08:23:07.800Z,27.73
2023-06-17T08:24:07.806Z,27.79
2023-06-17T08:25:07.791Z,27.76
2023-06-17T08:26:07.884Z,27.50
2023-06-17T08:27:08.001Z,27.41
2023-06-17T08:28:07.788Z,27.23
2023-06-17T08:29:08.139Z,27.11
2023-06-17T08:30:07.762Z,27.10
2023-06-17T08:31:07.747Z,27.14
2023-06-17T08:32:07.720Z,27.23
2023-06-17T08:33:07.760Z,27.17
2023-06-17T08:34:07.763Z,27.09
2023-06-17T08:35:07.976Z,26.98
2023-06-17T08:36:07.706Z,26.92
2023-06-17T08:37:08.093Z,26.87
2023-06-17T08:38:07.675Z,27.04
2023-06-17T08:39:07.836Z,27.16
2023-06-17T08:40:07.691Z,27.33
2023-06-17T08:41:07.741Z,27.36
2023-06-17T08:42:07.614Z,27.43
2023-06-17T08:43:07.715Z,27.41
2023-06-17T08:44:07.630Z,27.53
2023-06-17T08:45:07.903Z,27.85
2023-06-17T08:46:07.791Z,28.06
2023-06-17T08:47:07.618Z,28.33
2023-06-17T08:48:07.835Z,28.51
2023-06-17T08:49:07.728Z,28.68
2023-06-17T08:50:07.738Z,28.81
2023-06-17T08:51:07.741Z,28.44
2023-06-17T08:52:07.715Z,28.31
2023-06-17T08:53:07.563Z,28.38
2023-06-17T08:54:07.795Z,28.32
2023-06-17T08:55:07.618Z,28.33
2023-06-17T08:56:07.513Z,28.41
2023-06-17T08:57:07.882Z,28.35
2023-06-17T08:58:07.483Z,28.41
2023-06-17T08:59:07.612Z,28.44
2023-06-17T09:00:07.458Z,28.48
2023-06-17T09:01:07.472Z,28.63
2023-06-17T09:02:07.426Z,28.73
2023-06-17T09:03:07.546Z,28.78
2023-06-17T09:04:07.440Z,28.69
2023-06-17T09:05:07.634Z,28.75
2023-06-17T09:06:07.431Z,28.82
2023-06-17T09:07:07.487Z,28.80
2023-06-17T09:08:07.472Z,28.59
2023-06-17T09:09:07.390Z,28.54
2023-06-17T09:10:07.400Z,28.50
2023-06-17T09:11:07.592Z,28.47
2023-06-17T09:12:07.887Z,28.56
2023-06-17T09:13:07.341Z,28.62
2023-06-17T09:14:07.862Z,28.69
2023-06-17T09:15:07.353Z,28.78
2023-06-17T09:16:07.437Z,28.91
2023-06-17T09:17:07.397Z,29.03
2023-06-17T09:18:07.510Z,29.08
2023-06-17T09:19:07.314Z,29.23
2023-06-17T09:20:08.125Z,29.45
2023-06-17T09:21:07.272Z,29.75
2023-06-17T09:22:07.501Z,29.93
2023-06-17T09:23:07.648Z,30.15
2023-06-17T09:24:07.315Z,30.29
2023-06-17T09:25:07.249Z,30.47
2023-06-17T09:26:07.227Z,30.57
2023-06-17T09:27:07.300Z,30.64
2023-06-17T09:28:17.009Z,30.50
2023-06-17T09:29:07.167Z,30.65
2023-06-17T09:30:07.242Z,30.84
2023-06-17T09:31:07.315Z,30.91
2023-06-17T09:32:07.371Z,31.01
2023-06-17T09:33:07.239Z,31.02
2023-06-17T09:34:07.152Z,30.99
2023-06-17T09:35:07.193Z,31.09
2023-06-17T09:36:07.201Z,31.04
2023-06-17T09:37:07.116Z,30.89
2023-06-17T09:38:07.271Z,30.94
2023-06-17T09:39:07.234Z,30.98
2023-06-17T09:40:07.516Z,31.09
2023-06-17T09:41:07.120Z,31.09
2023-06-17T09:42:07.108Z,31.04
2023-06-17T09:43:26.097Z,30.98
2023-06-17T09:44:07.144Z,31.08
2023-06-17T09:45:07.047Z,31.06
2023-06-17T09:46:07.196Z,30.89
2023-06-17T09:47:07.239Z,30.94
2023-06-17T09:48:07.102Z,31.06
2023-06-17T09:49:07.357Z,31.06
2023-06-17T09:50:07.097Z,31.13
2023-06-17T09:51:07.076Z,31.05
2023-06-17T09:52:07.169Z,31.17
2023-06-17T09:53:07.146Z,31.26
2023-06-17T09:54:06.959Z,31.35
2023-06-17T09:55:06.943Z,31.38
2023-06-17T09:56:06.953Z,31.35
2023-06-17T09:57:06.957Z,31.48
2023-06-17T09:58:06.954Z,31.46
2023-06-17T09:59:06.976Z,31.31
2023-06-17T10:00:06.928Z,31.28
2023-06-17T10:01:06.922Z,31.33
2023-06-17T10:02:07.117Z,31.58
2023-06-17T10:03:07.041Z,31.84
2023-06-17T10:04:07.130Z,31.92
2023-06-17T10:05:06.986Z,31.85
2023-06-17T10:06:07.087Z,31.73
2023-06-17T10:07:06.845Z,31.75
2023-06-17T10:08:06.931Z,31.87
2023-06-17T10:09:06.925Z,31.88
2023-06-17T10:10:06.874Z,31.93
2023-06-17T10:11:06.910Z,31.92
2023-06-17T10:12:07.043Z,31.82
2023-06-17T10:13:06.873Z,31.70
2023-06-17T10:14:06.844Z,31.64
2023-06-17T10:15:07.024Z,31.73
2023-06-17T10:16:06.866Z,31.85
2023-06-17T10:17:06.906Z,31.88
2023-06-17T10:18:06.810Z,31.99
2023-06-17T10:19:06.782Z,31.98
2023-06-17T10:20:06.824Z,31.88
2023-06-17T10:21:06.994Z,31.88
2023-06-17T10:22:06.792Z,31.96
2023-06-17T10:23:06.690Z,32.11
2023-06-17T10:24:06.922Z,32.22
2023-06-17T10:25:06.700Z,32.24
2023-06-17T10:26:06.778Z,32.21
2023-06-17T10:27:06.781Z,31.99
2023-06-17T10:28:07.075Z,32.02
2023-06-17T10:29:06.699Z,32.14
2023-06-17T10:30:06.760Z,32.30
2023-06-17T10:31:06.865Z,32.36
2023-06-17T10:32:06.793Z,32.44
2023-06-17T10:33:06.930Z,32.42
2023-06-17T10:34:06.666Z,32.33
2023-06-17T10:35:06.988Z,32.22
2023-06-17T10:36:06.739Z,32.15
2023-06-17T10:37:06.603Z,32.13
2023-06-17T10:38:06.616Z,31.99
2023-06-17T10:39:06.753Z,32.06
2023-06-17T10:40:06.625Z,32.17
2023-06-17T10:41:06.736Z,32.17
2023-06-17T10:42:07.181Z,32.25
2023-06-17T10:43:06.887Z,32.44
2023-06-17T10:44:06.739Z,32.62
2023-06-17T10:45:06.575Z,32.48
2023-06-17T10:46:06.775Z,32.32
2023-06-17T10:47:06.558Z,31.96
2023-06-17T10:48:06.607Z,31.76
2023-06-17T10:49:06.517Z,31.68
2023-06-17T10:50:06.510Z,31.72
2023-06-17T10:51:06.534Z,31.79
2023-06-17T10:52:06.544Z,31.96
2023-06-17T10:53:06.678Z,32.11
2023-06-17T10:54:06.718Z,32.05
2023-06-17T10:55:06.510Z,32.06
2023-06-17T10:56:06.597Z,32.15
2023-06-17T10:57:06.481Z,32.02
2023-06-17T10:58:06.484Z,31.92
2023-06-17T10:59:06.437Z,32.00
2023-06-17T11:00:06.429Z,32.13
2023-06-17T11:01:06.405Z,32.15
2023-06-17T11:02:06.469Z,32.30
2023-06-17T11:03:06.529Z,32.35
2023-06-17T11:04:06.521Z,32.51
2023-06-17T11:05:06.390Z,32.66
2023-06-17T11:06:06.396Z,32.69
2023-06-17T11:07:06.412Z,32.71
2023-06-17T11:08:06.407Z,32.58
2023-06-17T11:09:06.377Z,32.33
2023-06-17T11:10:06.556Z,32.10
2023-06-17T11:11:06.405Z,32.07
2023-06-17T11:12:06.351Z,32.03
2023-06-17T11:13:06.419Z,32.13
2023-06-17T11:14:06.307Z,32.33
2023-06-17T11:15:06.526Z,32.35
2023-06-17T11:16:06.320Z,32.37
2023-06-17T11:17:06.669Z,32.47
2023-06-17T11:18:06.441Z,32.51
2023-06-17T11:19:06.285Z,32.39
2023-06-17T11:20:06.270Z,32.27
2023-06-17T11:21:06.264Z,32.35
2023-06-17T11:22:06.505Z,32.48
2023-06-17T11:23:06.290Z,32.54
2023-06-17T11:24:06.237Z,32.52
2023-06-17T11:25:06.322Z,32.49
2023-06-17T11:26:06.284Z,32.52
2023-06-17T11:27:06.199Z,32.66
2023-06-17T11:28:06.259Z,32.69
2023-06-17T11:29:06.330Z,32.58
2023-06-17T11:30:06.174Z,32.59
2023-06-17T11:31:06.286Z,32.35
2023-06-17T11:32:06.212Z,31.99
2023-06-17T11:33:07.530Z,31.98
2023-06-17T11:34:06.140Z,31.88
2023-06-17T11:35:06.143Z,31.79
2023-06-17T11:36:06.120Z,31.82
2023-06-17T11:37:06.379Z,31.99
2023-06-17T11:38:06.415Z,32.17
2023-06-17T11:39:06.109Z,32.00
2023-06-17T11:40:06.138Z,32.10
2023-06-17T11:41:06.091Z,32.27
2023-06-17T11:42:06.115Z,32.37
2023-06-17T11:43:06.274Z,32.48
2023-06-17T11:44:06.177Z,32.40
2023-06-17T11:45:06.100Z,32.49
2023-06-17T11:46:07.077Z,32.57
2023-06-17T11:47:06.076Z,32.51
2023-06-17T11:48:06.085Z,32.36
2023-06-17T11:49:06.100Z,32.35
2023-06-17T11:50:06.672Z,32.27
2023-06-17T11:51:06.018Z,32.13
2023-06-17T11:52:06.012Z,31.96
2023-06-17T11:53:05.970Z,31.72
2023-06-17T11:54:06.025Z,31.61
2023-06-17T11:55:06.171Z,31.73
2023-06-17T11:56:06.190Z,31.92
2023-06-17T11:57:06.049Z,32.17
2023-06-17T11:58:06.078Z,32.30
2023-06-17T11:59:06.540Z,32.43
2023-06-17T12:00:06.261Z,32.32
2023-06-17T12:01:06.071Z,32.37
2023-06-17T12:02:06.066Z,32.51
2023-06-17T12:03:06.231Z,32.55
2023-06-17T12:04:05.968Z,32.66
2023-06-17T12:05:05.956Z,32.79
2023-06-17T12:06:05.942Z,32.84
2023-06-17T12:07:05.883Z,32.76
2023-06-17T12:08:05.886Z,32.76
2023-06-17T12:09:06.084Z,32.80
2023-06-17T12:10:06.023Z,32.77
2023-06-17T12:11:05.882Z,32.74
2023-06-17T12:12:05.971Z,32.67
2023-06-17T12:13:06.371Z,32.54
2023-06-17T12:14:05.846Z,32.24
2023-06-17T12:15:14.956Z,31.92
2023-06-17T12:16:06.056Z,31.62
2023-06-17T12:17:05.985Z,31.55
2023-06-17T12:18:05.946Z,31.60
2023-06-17T12:19:06.043Z,31.68
2023-06-17T12:20:06.039Z,31.73
2023-06-17T12:21:05.791Z,31.75
2023-06-17T12:22:05.950Z,31.64
2023-06-17T12:23:05.869Z,31.64
2023-06-17T12:24:06.514Z,31.72
2023-06-17T12:25:05.715Z,31.92
2023-06-17T12:26:05.902Z,32.17
2023-06-17T12:27:05.868Z,32.42
2023-06-17T12:28:05.744Z,32.61
2023-06-17T12:29:19.781Z,32.77
2023-06-17T12:30:06.007Z,32.77
2023-06-17T12:31:06.025Z,32.69
2023-06-17T12:32:05.803Z,32.57
2023-06-17T12:33:05.975Z,32.57
2023-06-17T12:34:05.912Z,32.61
2023-06-17T12:35:07.998Z,32.69
2023-06-17T12:36:05.673Z,32.80
2023-06-17T12:37:05.644Z,32.93
2023-06-17T12:38:05.703Z,32.99
2023-06-17T12:39:05.778Z,32.89
2023-06-17T12:40:05.967Z,32.81
2023-06-17T12:41:05.611Z,32.81
2023-06-17T12:42:06.051Z,32.71
2023-06-17T12:43:05.774Z,32.62
2023-06-17T12:44:05.586Z,32.55
2023-06-17T12:45:05.716Z,32.51
2023-06-17T12:46:05.846Z,32.30
2023-06-17T12:47:05.652Z,32.29
2023-06-17T12:48:05.566Z,32.29
2023-06-17T12:49:05.540Z,32.22
2023-06-17T12:50:05.529Z,32.03
2023-06-17T12:51:05.552Z,31.75
2023-06-17T12:52:05.564Z,31.61